• Join FlightAware (Why Join?)
  • Login
  • US Flag 
01:26AM EDT


 

Airport Tracker/Info


-or-


 

Live Flight TrackerFlight Track Log ✈ CPT7773 ✈ 09-May-2013 ✈ KCOD - KCPR

Flight Track Log - Related Links

Times and Time Zones

All times are in EDT time to prevent confusion due to time zone crossing. See the CPT7773 flight status page for this flight to view local times or setup timezone preferences in your user account.

Time Position Orientation Groundspeed Altitude Reporting Facility
EDT Latitude Longitude Course Direction KTS MPH feet Rate Location/Type
08:08PM 44.5275 -108.9719 114° Southeast 126 145 6,400  Level Salt Lake Center
08:09PM 44.5100 -108.9181 114° Southeast 135 155 7,400 840 Climbing Salt Lake Center
08:10PM 44.4950 -108.8706 114° Southeast 137 158 8,200 840 Climbing Salt Lake Center
08:11PM 44.4778 -108.8156 114° Southeast 139 160 9,200 720 Climbing Salt Lake Center
08:12PM 44.4647 -108.7681 111° Southeast 138 159 9,800 840 Climbing Salt Lake Center
08:13PM 44.4492 -108.7133 112° Southeast 137 158 11,000 600 Climbing Salt Lake Center
08:14PM 44.4311 -108.6644 117° Southeast 141 162 11,100  Climbing Salt Lake Center
08:15PM 44.3928 -108.6114 135° Southeast 162 186 11,100  Level Salt Lake Center
08:16PM 44.3633 -108.5661 132° Southeast 166 191 11,200  Climbing Salt Lake Center
08:17PM 44.3303 -108.5128 131° Southeast 164 189 11,100 -60 Descending Salt Lake Center
08:18PM 44.3000 -108.4681 133° Southeast 165 190 11,100  Level Salt Lake Center
08:19PM 44.2692 -108.4228 134° Southeast 166 191 11,100  Level Salt Lake Center
08:20PM 44.2353 -108.3686 131° Southeast 167 192 11,100 -60 Level Salt Lake Center
08:21PM 44.2028 -108.3225 135° Southeast 169 194 11,000  Descending Salt Lake Center
08:22PM 44.1514 -108.2875 154° Southeast 179 206 11,100  Climbing Salt Lake Center
08:23PM 44.1103 -108.2494 146° Southeast 183 211 11,100  Level Salt Lake Center
08:24PM 44.0656 -108.2003 142° Southeast 183 211 11,100  Level Salt Lake Center
08:25PM 44.0272 -108.1575 141° Southeast 183 211 11,100 -60 Level Salt Lake Center
08:26PM 43.9992 -108.0914 121° Southeast 178 205 11,000 -60 Descending Salt Lake Center
08:27PM 43.9769 -108.0339 118° Southeast 179 206 11,000  Level Salt Lake Center
08:28PM 43.9636 -107.9758 108° East 172 198 11,000  Level Salt Lake Center
08:29PM 43.9453 -107.9142 112° Southeast 163 188 11,000  Level Salt Lake Center
08:30PM 43.9194 -107.8669 127° Southeast 162 186 11,000  Level Salt Lake Center
08:31PM 43.8903 -107.8094 125° Southeast 162 186 11,000  Level Salt Lake Center
08:32PM 43.8644 -107.7594 126° Southeast 164 189 11,000  Level Salt Lake Center
08:33PM 43.8347 -107.7014 125° Southeast 165 190 11,000  Level Salt Lake Center
08:34PM 43.8086 -107.6514 126° Southeast 166 191 11,000  Level Salt Lake Center
08:35PM 43.7783 -107.5942 126° Southeast 166 191 11,000  Level Salt Lake Center
08:36PM 43.7531 -107.5433 125° Southeast 166 191 11,000  Level Salt Lake Center
08:37PM 43.7264 -107.4936 127° Southeast 168 193 11,000  Level Salt Lake Center
08:38PM 43.6975 -107.4361 125° Southeast 166 191 11,000 -60 Level Salt Lake Center
08:39PM 43.6736 -107.3875 124° Southeast 162 186 10,900 -60 Descending Salt Lake Center
08:41PM 43.6433 -107.3322 127° Southeast 162 186 10,900  Level Salt Lake Center
08:42PM 43.6189 -107.2856 126° Southeast 160 184 10,900  Level Salt Lake Center
08:43PM 43.5914 -107.2294 124° Southeast 158 182 10,900  Level Salt Lake Center
08:44PM 43.5667 -107.1822 126° Southeast 159 183 10,900  Level Salt Lake Center
08:45PM 43.5422 -107.1383 128° Southeast 155 178 10,900 60 Level Salt Lake Center
08:45PM 43.5322 -107.1125 118° Southeast 155 178 11,000 120 Climbing Denver Center
08:46PM 43.5025 -107.0575 127° Southeast 158 182 11,100  Climbing Denver Center
08:47PM 43.4778 -107.0078 124° Southeast 162 186 11,100 -60 Level Denver Center
08:48PM 43.4464 -106.9542 129° Southeast 163 188 11,000 -60 Descending Denver Center
08:49PM 43.4217 -106.9044 124° Southeast 164 189 11,000  Level Denver Center
08:50PM 43.3956 -106.8547 126° Southeast 164 189 11,000 -120 Level Denver Center
08:51PM 43.3656 -106.7969 126° Southeast 168 193 10,800 -300 Descending Denver Center
08:52PM 43.3375 -106.7439 126° Southeast 177 204 10,400 -480 Descending Denver Center
08:53PM 43.2933 -106.7017 145° Southeast 184 212 9,900 -420 Descending Denver Center
08:54PM 43.2517 -106.6731 153° Southeast 179 206 9,600 -360 Descending Denver Center
08:55PM 43.1997 -106.6456 159° South 178 205 9,200 -420 Descending Denver Center
08:56PM 43.1553 -106.6258 162° South 177 204 8,800 -360 Descending Denver Center
08:57PM 43.1031 -106.6058 164° South 175 201 8,500 -420 Descending Denver Center
08:58PM 43.0572 -106.5892 165° South 176 203 8,000 -540 Descending Denver Center
09:00PM 43.0036 -106.5667 163° South 178 205 7,400 -540 Descending Denver Center
09:01PM 42.9606 -106.5469 161° South 177 204 6,900 -300 Descending Denver Center
09:02PM 42.9317 -106.5286 155° Southeast 153 176 6,800 -120 Descending Denver Center
09:04PM 42.9080 -106.4644 351° North  Level Estimated
09:11PM 42.9080 -106.4644 115° Southeast  Level Estimated
09:12PM 42.9080 -106.4644 127° Southeast  Level Estimated